Time;durP1;ratioP1;P1;durP2;ratioP2;P2;SDS_P1;SDS_P2;PMS_P1;PMS_P2;Temp;Humidity;BMP_temperature;BMP_pressure;BME280_temperature;BME280_humidity;BME280_pressure;Samples;Min_cycle;Max_cycle;Signal;HPM_P1;HPM_P2
2023/12/21 00:02:03;;;;;;;0.83;0.50;;;;;;;;;;20808778;28;20219;-82
2023/12/21 00:12:05;;;;;;;0.10;0.10;;;;;;;;;;20798415;28;20226;-84
2023/12/21 00:22:08;;;;;;;0.20;0.20;;;;;;;;;;20783237;28;20242;-84
2023/12/21 00:32:09;;;;;;;0.43;0.30;;;;;;;;;;20735885;28;20223;-83
2023/12/21 00:42:11;;;;;;;0.20;0.20;;;;;;;;;;20794457;28;20249;-84
2023/12/21 00:52:13;;;;;;;0.10;0.10;;;;;;;;;;20805800;28;20214;-84
2023/12/21 01:02:41;;;;;;;0.30;0.20;;;;;;;;;;20844932;28;20237;-86
2023/12/21 01:12:43;;;;;;;0.20;0.10;;;;;;;;;;20822078;28;20269;-87
2023/12/21 01:22:45;;;;;;;0.00;0.00;;;;;;;;;;20785542;28;20234;-87
2023/12/21 01:32:46;;;;;;;0.30;0.20;;;;;;;;;;20764902;28;20218;-84
2023/12/21 01:42:48;;;;;;;0.83;0.20;;;;;;;;;;20772197;28;20269;-83
2023/12/21 01:52:51;;;;;;;0.10;0.10;;;;;;;;;;20780757;28;20698;-85
2023/12/21 02:02:53;;;;;;;0.20;0.20;;;;;;;;;;20797802;28;20611;-85
2023/12/21 02:12:56;;;;;;;0.03;0.03;;;;;;;;;;20758069;28;20218;-83
2023/12/21 02:22:59;;;;;;;0.10;0.10;;;;;;;;;;20805327;28;20258;-84
2023/12/21 02:33:01;;;;;;;0.13;0.13;;;;;;;;;;20800565;28;20296;-83
2023/12/21 02:43:03;;;;;;;0.10;0.10;;;;;;;;;;20787642;28;20218;-84
2023/12/21 02:53:05;;;;;;;0.10;0.10;;;;;;;;;;20795453;28;20235;-83
2023/12/21 03:03:07;;;;;;;0.30;0.20;;;;;;;;;;20827379;28;20237;-81
2023/12/21 03:13:09;;;;;;;0.20;0.20;;;;;;;;;;20794223;28;20246;-82
2023/12/21 03:23:11;;;;;;;0.00;0.00;;;;;;;;;;20800206;28;20238;-82
2023/12/21 03:33:12;;;;;;;1.03;0.30;;;;;;;;;;20808018;28;20223;-83
2023/12/21 03:43:14;;;;;;;1.23;0.10;;;;;;;;;;20816291;28;20214;-83
2023/12/21 03:53:16;;;;;;;0.10;0.10;;;;;;;;;;20782790;28;20244;-84
2023/12/21 04:03:18;;;;;;;0.00;0.00;;;;;;;;;;20785281;28;20808;-83
2023/12/21 04:13:20;;;;;;;0.33;0.20;;;;;;;;;;20857009;28;20234;-84
2023/12/21 04:23:24;;;;;;;0.10;0.10;;;;;;;;;;20776471;28;20695;-83
2023/12/21 04:33:25;;;;;;;0.10;0.10;;;;;;;;;;20804945;28;20219;-82
2023/12/21 04:43:27;;;;;;;0.00;0.00;;;;;;;;;;20810402;28;20587;-83
2023/12/21 04:53:29;;;;;;;0.30;0.20;;;;;;;;;;20808873;28;20748;-80
2023/12/21 05:03:31;;;;;;;0.00;0.00;;;;;;;;;;20860237;28;20225;-83
2023/12/21 05:13:32;;;;;;;1.60;0.10;;;;;;;;;;20800293;28;20226;-84
2023/12/21 05:23:34;;;;;;;0.10;0.10;;;;;;;;;;20792079;28;20276;-82
2023/12/21 05:33:36;;;;;;;0.20;0.00;;;;;;;;;;20773151;28;20253;-83
2023/12/21 05:43:38;;;;;;;0.00;0.00;;;;;;;;;;20847826;28;20561;-83
2023/12/21 05:53:41;;;;;;;0.00;0.00;;;;;;;;;;20811111;28;20257;-84
2023/12/21 06:03:42;;;;;;;0.13;0.10;;;;;;;;;;20774613;28;20636;-83
2023/12/21 06:13:44;;;;;;;0.00;0.00;;;;;;;;;;20801264;28;20296;-84
2023/12/21 06:23:46;;;;;;;0.00;0.00;;;;;;;;;;20824306;28;20226;-82
2023/12/21 06:33:48;;;;;;;0.00;0.00;;;;;;;;;;20827083;28;20292;-84
2023/12/21 06:43:49;;;;;;;0.00;0.00;;;;;;;;;;20818731;28;20267;-81
2023/12/21 06:53:52;;;;;;;0.17;0.10;;;;;;;;;;20819944;28;20234;-82
2023/12/21 07:03:54;;;;;;;0.30;0.10;;;;;;;;;;20843630;28;20210;-81
2023/12/21 07:13:55;;;;;;;0.03;0.03;;;;;;;;;;20817973;28;20214;-81
2023/12/21 07:23:57;;;;;;;0.10;0.10;;;;;;;;;;20805598;28;20226;-83
2023/12/21 07:33:59;;;;;;;0.07;0.07;;;;;;;;;;20786757;28;20237;-81
2023/12/21 07:44:01;;;;;;;0.00;0.00;;;6.20;99.90;;;;;;20806975;28;20214;-80
2023/12/21 07:54:04;;;;;;;0.10;0.10;;;;;;;;;;20798989;28;20269;-81
2023/12/21 08:04:08;;;;;;;0.00;0.00;;;6.30;99.90;;;;;;20839170;28;20297;-82
2023/12/21 08:14:10;;;;;;;0.10;0.10;;;;;;;;;;20796645;28;20222;-81
2023/12/21 08:24:11;;;;;;;0.00;0.00;;;;;;;;;;20814239;28;20632;-82
2023/12/21 08:34:13;;;;;;;0.10;0.10;;;;;;;;;;20813299;28;20631;-84
2023/12/21 08:44:15;;;;;;;0.10;0.10;;;;;;;;;;20798262;28;20704;-82
2023/12/21 08:54:17;;;;;;;0.10;0.10;;;;;;;;;;20849455;28;20226;-82
2023/12/21 09:04:19;;;;;;;0.00;0.00;;;;;;;;;;20821583;28;20234;-85
2023/12/21 09:14:22;;;;;;;0.00;0.00;;;;;;;;;;20760463;28;20234;-83
2023/12/21 09:24:24;;;;;;;0.30;0.13;;;;;;;;;;20794376;28;20252;-85
2023/12/21 09:34:27;;;;;;;0.00;0.00;;;;;;;;;;20784236;28;20239;-84
2023/12/21 09:44:30;;;;;;;0.03;0.00;;;;;;;;;;20786804;28;20247;-83
2023/12/21 09:54:31;;;;;;;0.00;0.00;;;;;;;;;;20836718;28;20218;-84
2023/12/21 10:04:33;;;;;;;0.00;0.00;;;;;;;;;;20787694;28;20573;-85
2023/12/21 10:14:35;;;;;;;0.10;0.10;;;;;;;;;;20795316;28;20272;-82
2023/12/21 10:24:37;;;;;;;0.50;0.47;;;7.00;99.90;;;;;;20829663;28;20226;-85
2023/12/21 10:34:38;;;;;;;0.00;0.00;;;;;;;;;;20827735;28;20292;-87
2023/12/21 10:44:44;;;;;;;0.10;0.07;;;7.00;99.90;;;;;;20768649;28;20242;-84
2023/12/21 10:54:47;;;;;;;0.10;0.10;;;7.30;99.90;;;;;;20808609;28;20631;-83
2023/12/21 11:04:49;;;;;;;0.00;0.00;;;7.10;99.90;;;;;;20768852;28;20786;-83
2023/12/21 11:14:51;;;;;;;0.60;0.40;;;;;;;;;;20796981;28;20234;-84
2023/12/21 11:25:04;;;;;;;0.00;0.00;;;;;;;;;;20797013;28;20329;-84
2023/12/21 11:35:16;;;;;;;0.30;0.30;;;;;;;;;;20786190;28;20214;-82
2023/12/21 11:45:25;;;;;;;0.10;0.10;;;;;;;;;;20808890;28;20268;-83
2023/12/21 11:55:27;;;;;;;0.10;0.10;;;;;;;;;;20801163;28;20516;-83
2023/12/21 12:05:30;;;;;;;0.00;0.00;;;;;;;;;;20809649;28;20253;-83
2023/12/21 12:15:31;;;;;;;0.97;0.10;;;;;;;;;;20802757;28;20268;-83
2023/12/21 12:25:33;;;;;;;0.00;0.00;;;;;;;;;;20793392;28;20338;-84
2023/12/21 12:35:38;;;;;;;0.10;0.00;;;;;;;;;;20776107;28;20673;-84
2023/12/21 12:45:41;;;;;;;0.10;0.10;;;8.10;99.90;;;;;;20841259;28;20625;-82
2023/12/21 12:55:49;;;;;;;0.70;0.50;;;;;;;;;;20798146;28;20287;-84
2023/12/21 13:05:52;;;;;;;2.00;1.10;;;;;;;;;;20799789;28;20664;-84
2023/12/21 13:15:53;;;;;;;1.77;0.93;;;;;;;;;;20807979;28;20558;-84
2023/12/21 13:25:55;;;;;;;0.37;0.37;;;;;;;;;;20822928;28;20293;-85
2023/12/21 13:35:58;;;;;;;0.10;0.10;;;;;;;;;;20814442;28;20218;-82
2023/12/21 13:46:02;;;;;;;0.20;0.10;;;;;;;;;;20814423;28;20245;-83
2023/12/21 13:56:05;;;;;;;0.20;0.20;;;;;;;;;;20800274;28;20222;-83
2023/12/21 14:06:07;;;;;;;1.37;0.57;;;;;;;;;;20816160;28;20241;-86
2023/12/21 14:16:09;;;;;;;4.57;2.57;;;;;;;;;;20789290;28;20214;-83
2023/12/21 14:26:11;;;;;;;0.20;0.10;;;;;;;;;;20806420;28;20668;-83
2023/12/21 14:36:13;;;;;;;0.10;0.10;;;;;;;;;;20799630;28;20287;-85
2023/12/21 14:46:14;;;;;;;0.10;0.10;;;;;;;;;;20822754;28;20636;-85
2023/12/21 14:56:16;;;;;;;0.43;0.30;;;;;;;;;;20846698;28;20281;-85
2023/12/21 15:06:18;;;;;;;0.20;0.20;;;;;;;;;;20841116;28;20190;-84
2023/12/21 15:16:19;;;;;;;0.10;0.10;;;;;;;;;;20810319;28;20245;-85
2023/12/21 15:26:21;;;;;;;0.10;0.10;;;;;;;;;;20850062;28;20210;-83
2023/12/21 15:36:23;;;;;;;0.17;0.13;;;;;;;;;;20799810;28;20218;-83
2023/12/21 15:46:26;;;;;;;0.17;0.10;;;;;;;;;;20798206;28;20280;-85
2023/12/21 15:56:28;;;;;;;0.20;0.20;;;;;;;;;;20829545;28;20222;-84
2023/12/21 16:06:29;;;;;;;1.30;0.10;;;;;;;;;;20815313;28;20214;-85
2023/12/21 16:16:31;;;;;;;0.60;0.40;;;;;;;;;;20804596;28;20616;-83
2023/12/21 16:26:40;;;;;;;0.10;0.10;;;;;;;;;;20800016;28;20688;-86
2023/12/21 16:36:41;;;;;;;0.20;0.20;;;;;;;;;;20806530;28;20222;-83
2023/12/21 16:46:43;;;;;;;0.30;0.20;;;;;;;;;;20829505;28;20280;-84
2023/12/21 16:56:46;;;;;;;2.50;0.20;;;;;;;;;;20825614;28;20226;-82
2023/12/21 17:06:47;;;;;;;0.40;0.33;;;;;;;;;;20809007;28;20364;-83
2023/12/21 17:16:50;;;;;;;1.53;0.30;;;;;;;;;;20783592;28;20253;-83
2023/12/21 17:26:52;;;;;;;0.47;0.30;;;;;;;;;;20795928;28;20231;-84
2023/12/21 17:36:53;;;;;;;0.83;0.37;;;;;;;;;;20790224;28;20267;-83
2023/12/21 17:46:55;;;;;;;0.47;0.37;;;;;;;;;;20825954;28;20211;-80
2023/12/21 17:56:57;;;;;;;1.17;0.40;;;;;;;;;;20790404;28;20218;-83
2023/12/21 18:06:58;;;;;;;0.60;0.40;;;;;;;;;;20802359;28;20695;-82
2023/12/21 18:17:00;;;;;;;0.73;0.37;;;;;;;;;;20820155;28;20281;-87
2023/12/21 18:27:02;;;;;;;0.57;0.57;;;;;;;;;;20814295;28;20233;-84
2023/12/21 18:37:04;;;;;;;0.70;0.20;;;;;;;;;;20853413;22;20226;-66
2023/12/21 18:47:06;;;;;;;1.10;0.50;;;;;;;;;;20924220;28;20244;-67
2023/12/21 18:57:09;;;;;;;1.10;0.30;;;;;;;;;;20913281;28;20278;-67
2023/12/21 19:07:11;;;;;;;0.77;0.30;;;;;;;;;;20937037;28;20696;-68
2023/12/21 19:17:13;;;;;;;0.90;0.60;;;;;;;;;;20919483;28;20274;-67
2023/12/21 19:27:16;;;;;;;0.90;0.30;;;;;;;;;;20918607;28;20831;-67
2023/12/21 19:37:20;;;;;;;0.90;0.40;;;;;;;;;;20950702;28;20648;-68
2023/12/21 19:47:22;;;;;;;0.93;0.30;;;;;;;;;;20933768;28;20209;-68
2023/12/21 19:57:24;;;;;;;1.27;1.10;;;;;;;;;;20922720;28;20217;-66
2023/12/21 20:07:26;;;;;;;1.30;0.40;;;;;;;;;;20900487;28;20570;-69
2023/12/21 20:17:28;;;;;;;1.03;0.30;;;;;;;;;;20901249;28;20286;-67
2023/12/21 20:27:30;;;;;;;0.63;0.40;;;;;;;;;;20933314;28;20270;-70
2023/12/21 20:37:32;;;;;;;4.93;0.70;;;;;;;;;;20887801;28;20649;-70
2023/12/21 20:47:34;;;;;;;1.30;0.60;;;;;;;;;;20916110;28;20244;-68
2023/12/21 20:57:36;;;;;;;2.33;0.63;;;;;;;;;;20933194;28;20217;-70
2023/12/21 21:07:38;;;;;;;0.37;0.27;;;;;;;;;;20922594;28;20277;-67
2023/12/21 21:17:40;;;;;;;2.80;0.43;;;;;;;;;;20919213;28;20217;-68
2023/12/21 21:27:41;;;;;;;0.50;0.40;;;;;;;;;;20893957;28;20252;-69
2023/12/21 21:37:44;;;;;;;2.47;0.33;;;;;;;;;;20890445;28;20228;-68
2023/12/21 21:47:46;;;;;;;1.13;0.50;;;8.70;99.90;;;;;;20946653;28;20216;-67
2023/12/21 21:57:48;;;;;;;0.73;0.27;;;;;;;;;;20901238;28;20217;-69
2023/12/21 22:07:50;;;;;;;1.10;0.60;;;;;;;;;;20919024;22;20306;-68
2023/12/21 22:17:52;;;;;;;1.73;0.80;;;;;;;;;;20986583;28;20220;-68
2023/12/21 22:27:54;;;;;;;0.33;0.20;;;;;;;;;;21010869;28;20208;-67
2023/12/21 22:37:56;;;;;;;0.70;0.50;;;;;;;;;;21012649;28;20207;-67
2023/12/21 22:47:57;;;;;;;0.77;0.30;;;;;;;;;;21003957;28;20274;-67
2023/12/21 22:57:59;;;;;;;3.00;0.50;;;;;;;;;;21000308;28;20250;-67
2023/12/21 23:08:01;;;;;;;1.03;0.37;;;;;;;;;;21017110;28;20285;-68
2023/12/21 23:18:03;;;;;;;1.30;0.47;;;8.70;99.90;;;;;;21025735;28;20258;-67
2023/12/21 23:28:04;;;;;;;0.50;0.10;;;8.50;99.90;;;;;;21008826;28;20740;-69
2023/12/21 23:38:06;;;;;;;0.50;0.37;;;;;;;;;;20992911;28;20278;-68
2023/12/21 23:48:08;;;;;;;0.33;0.10;;;;;;;;;;21042145;28;20216;-68
2023/12/21 23:58:10;;;;;;;0.10;0.10;;;;;;;;;;21024270;28;20221;-68
